Time;durP1;ratioP1;P1;durP2;ratioP2;P2;SDS_P1;SDS_P2;PMS_P1;PMS_P2;Temp;Humidity;BMP_temperature;BMP_pressure;BME280_temperature;BME280_humidity;BME280_pressure;Samples;Min_cycle;Max_cycle;Signal;HPM_P1;HPM_P2
2023/06/09 00:02:26;;;;;;;5.55;2.88;;;10.80;99.90;;;;;;5074439;28;20052;-56
2023/06/09 00:04:56;;;;;;;5.05;3.15;;;10.80;99.90;;;;;;5071383;28;20045;-57
2023/06/09 00:07:26;;;;;;;6.68;3.20;;;10.80;99.90;;;;;;5067213;28;20645;-56
2023/06/09 00:09:54;;;;;;;9.88;3.05;;;10.80;99.90;;;;;;5058683;28;20041;-58
2023/06/09 00:12:22;;;;;;;5.28;2.72;;;10.80;99.90;;;;;;5052768;28;20056;-57
2023/06/09 00:14:50;;;;;;;8.55;3.17;;;10.80;99.90;;;;;;5055216;28;20045;-56
2023/06/09 00:17:19;;;;;;;8.50;3.53;;;10.80;99.90;;;;;;5046831;28;20488;-57
2023/06/09 00:19:47;;;;;;;7.80;3.47;;;10.80;99.90;;;;;;5065221;28;20052;-55
2023/06/09 00:22:15;;;;;;;14.07;3.35;;;10.80;99.90;;;;;;5065929;28;20032;-56
2023/06/09 00:24:45;;;;;;;8.48;3.17;;;10.80;99.90;;;;;;5068507;28;20053;-57
2023/06/09 00:27:13;;;;;;;10.00;3.77;;;10.80;99.90;;;;;;5049766;28;20059;-56
2023/06/09 00:29:41;;;;;;;9.70;3.13;;;10.80;99.90;;;;;;5067226;28;20294;-57
2023/06/09 00:32:11;;;;;;;7.82;3.55;;;10.80;99.90;;;;;;5066520;28;20037;-62
2023/06/09 00:34:40;;;;;;;10.23;3.75;;;10.80;99.90;;;;;;5067528;28;20045;-57
2023/06/09 00:37:08;;;;;;;9.77;3.17;;;10.70;99.90;;;;;;5067231;28;20582;-57
2023/06/09 00:39:36;;;;;;;5.95;3.45;;;10.70;99.90;;;;;;5067549;28;20064;-56
2023/06/09 00:42:05;;;;;;;7.95;3.47;;;10.70;99.90;;;;;;5067449;28;20059;-55
2023/06/09 00:44:35;;;;;;;9.80;3.90;;;10.70;99.90;;;;;;5058083;28;20056;-56
2023/06/09 00:47:04;;;;;;;10.20;3.92;;;10.70;99.90;;;;;;5066049;28;20487;-57
2023/06/09 00:49:33;;;;;;;8.73;3.22;;;10.70;99.90;;;;;;5066321;28;20048;-57
2023/06/09 00:52:01;;;;;;;9.90;3.70;;;10.70;99.90;;;;;;5066390;28;20044;-56
2023/06/09 00:54:33;;;;;;;8.88;3.22;;;10.70;99.90;;;;;;5067165;28;20056;-56
2023/06/09 00:57:05;;;;;;;9.90;2.97;;;10.60;99.90;;;;;;5067646;28;20368;-56
2023/06/09 00:59:35;;;;;;;15.93;6.32;;;10.60;99.90;;;;;;5072211;28;20053;-57
2023/06/09 01:02:04;;;;;;;9.68;4.03;;;10.60;99.90;;;;;;5048439;28;20041;-56
2023/06/09 01:04:34;;;;;;;10.77;3.78;;;10.60;99.90;;;;;;5062521;28;20515;-57
2023/06/09 01:07:16;;;;;;;8.20;3.67;;;10.60;99.90;;;;;;5067794;28;20047;-56
2023/06/09 01:09:54;;;;;;;8.80;3.28;;;10.60;99.90;;;;;;5070787;28;20045;-57
2023/06/09 01:12:30;;;;;;;6.93;3.50;;;10.60;99.90;;;;;;5070768;28;20049;-57
2023/06/09 01:15:02;;;;;;;10.30;4.10;;;10.50;99.90;;;;;;5060707;28;20068;-57
2023/06/09 01:17:32;;;;;;;5.40;3.33;;;10.50;99.90;;;;;;5050709;28;20049;-57
2023/06/09 01:20:04;;;;;;;16.63;3.88;;;10.50;99.90;;;;;;5065619;28;20483;-57
2023/06/09 01:22:52;;;;;;;9.68;3.65;;;10.50;99.90;;;;;;5068697;28;20059;-57
2023/06/09 01:25:34;;;;;;;11.77;4.07;;;10.50;99.90;;;;;;5063312;28;20049;-57
2023/06/09 01:28:08;;;;;;;10.00;2.83;;;10.50;99.90;;;;;;5068141;28;20047;-56
2023/06/09 01:30:40;;;;;;;8.88;4.00;;;10.40;99.90;;;;;;5067667;28;20060;-56
2023/06/09 01:33:11;;;;;;;11.88;4.22;;;10.40;99.90;;;;;;5057995;28;20530;-56
2023/06/09 01:35:40;;;;;;;9.05;4.25;;;10.40;99.90;;;;;;5070473;28;20051;-55
2023/06/09 01:38:08;;;;;;;8.70;3.30;;;10.40;99.90;;;;;;5073285;28;20416;-56
2023/06/09 01:40:36;;;;;;;7.45;4.00;;;10.40;99.90;;;;;;5072840;28;20056;-57
2023/06/09 01:43:06;;;;;;;10.23;3.92;;;10.40;99.90;;;;;;5072412;28;20071;-56
2023/06/09 01:45:34;;;;;;;10.20;3.72;;;10.40;99.90;;;;;;5069676;28;20048;-56
2023/06/09 01:48:21;;;;;;;9.35;4.68;;;10.40;99.90;;;;;;5052157;28;20045;-57
2023/06/09 01:50:59;;;;;;;10.18;3.92;;;10.40;99.90;;;;;;5053514;28;20056;-57
2023/06/09 01:53:32;;;;;;;9.57;3.50;;;10.40;99.90;;;;;;5070834;28;20048;-57
2023/06/09 01:56:09;;;;;;;7.65;4.22;;;10.40;99.90;;;;;;5073561;28;20040;-57
2023/06/09 01:58:45;;;;;;;11.38;4.93;;;10.40;99.90;;;;;;5072553;28;20052;-56
2023/06/09 02:01:18;;;;;;;11.48;3.65;;;10.40;99.90;;;;;;5092310;28;20040;-56
2023/06/09 02:03:49;;;;;;;9.75;4.22;;;10.40;99.90;;;;;;5078233;28;20044;-55
2023/06/09 02:06:20;;;;;;;9.60;4.30;;;10.40;99.90;;;;;;5073189;28;20045;-56
2023/06/09 02:08:48;;;;;;;10.25;4.38;;;10.40;99.90;;;;;;5071545;28;20048;-57
2023/06/09 02:11:16;;;;;;;10.40;5.00;;;10.40;99.90;;;;;;5072013;28;20040;-57
2023/06/09 02:13:55;;;;;;;8.73;4.30;;;10.30;99.90;;;;;;5071712;28;20400;-57
2023/06/09 02:16:24;;;;;;;10.45;4.85;;;10.30;99.90;;;;;;5070364;28;20293;-56
2023/06/09 02:18:53;;;;;;;10.95;5.30;;;10.30;99.90;;;;;;5072209;28;20040;-56
2023/06/09 02:21:21;;;;;;;9.82;4.45;;;10.30;99.90;;;;;;5062615;28;20053;-56
2023/06/09 02:23:50;;;;;;;7.60;4.25;;;10.30;99.90;;;;;;5066279;28;20044;-56
2023/06/09 02:26:18;;;;;;;8.65;4.25;;;10.30;99.90;;;;;;5070963;28;20523;-57
2023/06/09 02:28:47;;;;;;;9.63;4.60;;;10.30;99.90;;;;;;5075456;28;20056;-56
2023/06/09 02:31:15;;;;;;;8.77;4.43;;;10.20;99.90;;;;;;5072080;28;20049;-55
2023/06/09 02:33:43;;;;;;;7.68;4.13;;;10.30;99.90;;;;;;5067238;28;20040;-54
2023/06/09 02:36:13;;;;;;;11.25;4.50;;;10.20;99.90;;;;;;5071368;28;20663;-56
2023/06/09 02:38:41;;;;;;;;;;;10.20;99.90;;;;;;5070724;28;20049;-56
2023/06/09 02:41:09;;;;;;;11.20;4.43;;;10.20;99.90;;;;;;5055850;28;19932;-56
2023/06/09 02:43:37;;;;;;;14.57;4.85;;;10.20;99.90;;;;;;5064852;28;20045;-57
2023/06/09 02:46:05;;;;;;;7.68;4.43;;;10.20;99.90;;;;;;5070938;28;20052;-56
2023/06/09 02:48:33;;;;;;;16.83;4.70;;;10.20;99.90;;;;;;5071353;28;20036;-56
2023/06/09 02:51:01;;;;;;;9.88;5.10;;;10.20;99.90;;;;;;5071354;28;20040;-56
2023/06/09 02:53:30;;;;;;;10.80;4.65;;;10.20;99.90;;;;;;5071068;28;20052;-55
2023/06/09 02:56:00;;;;;;;12.27;4.55;;;10.20;99.90;;;;;;5065713;28;20059;-55
2023/06/09 02:58:34;;;;;;;6.43;3.80;;;10.10;99.90;;;;;;5072042;28;20064;-56
2023/06/09 03:01:02;;;;;;;8.20;4.30;;;10.10;99.90;;;;;;5089592;28;20051;-56
2023/06/09 03:03:30;;;;;;;13.60;4.13;;;10.10;99.90;;;;;;5070519;28;20041;-56
2023/06/09 03:05:59;;;;;;;10.32;4.85;;;10.10;99.90;;;;;;5070730;28;20502;-56
2023/06/09 03:08:29;;;;;;;8.73;4.15;;;10.10;99.90;;;;;;5070176;28;20503;-55
2023/06/09 03:10:57;;;;;;;10.40;5.25;;;10.10;99.90;;;;;;5070897;28;20400;-55
2023/06/09 03:13:25;;;;;;;12.48;4.78;;;10.10;99.90;;;;;;5070174;28;20049;-55
2023/06/09 03:15:55;;;;;;;10.40;4.78;;;10.10;99.90;;;;;;5063654;28;20081;-56
2023/06/09 03:18:25;;;;;;;9.38;4.43;;;10.10;99.90;;;;;;5054551;28;20029;-55
2023/06/09 03:20:53;;;;;;;11.38;4.00;;;10.00;99.90;;;;;;5069370;28;20052;-59
2023/06/09 03:23:22;;;;;;;15.65;5.07;;;10.00;99.90;;;;;;5070593;28;20048;-57
2023/06/09 03:25:52;;;;;;;12.00;4.88;;;10.00;99.90;;;;;;5069707;28;20040;-57
2023/06/09 03:28:26;;;;;;;9.13;4.43;;;10.00;99.90;;;;;;5070489;28;20051;-57
2023/06/09 03:30:55;;;;;;;13.82;4.72;;;10.00;99.90;;;;;;5072198;28;20040;-56
2023/06/09 03:33:25;;;;;;;12.82;4.55;;;10.00;99.90;;;;;;5054124;28;20496;-56
2023/06/09 03:35:54;;;;;;;10.68;4.65;;;10.00;99.90;;;;;;5066485;28;20060;-57
2023/06/09 03:38:26;;;;;;;9.45;4.38;;;9.90;99.90;;;;;;5069546;28;20048;-56
2023/06/09 03:40:54;;;;;;;11.30;5.35;;;9.90;99.90;;;;;;5071300;28;20063;-55
2023/06/09 03:43:22;;;;;;;9.30;4.95;;;9.90;99.90;;;;;;5069590;28;20384;-56
2023/06/09 03:45:50;;;;;;;7.97;4.05;;;9.90;99.90;;;;;;5070169;28;20523;-55
2023/06/09 03:48:18;;;;;;;12.52;4.55;;;9.90;99.90;;;;;;5069788;28;20044;-57
2023/06/09 03:50:46;;;;;;;10.07;4.60;;;9.90;99.90;;;;;;5070063;28;20040;-56
2023/06/09 03:53:15;;;;;;;8.30;4.50;;;9.90;99.90;;;;;;5069601;28;20047;-56
2023/06/09 03:55:43;;;;;;;8.63;4.30;;;9.90;99.90;;;;;;5069639;28;20525;-55
2023/06/09 03:58:12;;;;;;;10.02;4.63;;;9.80;99.90;;;;;;5069467;28;20039;-55
2023/06/09 04:00:42;;;;;;;10.75;4.45;;;9.90;99.90;;;;;;5088993;28;20051;-56
2023/06/09 04:03:11;;;;;;;8.48;4.13;;;9.80;99.90;;;;;;5090197;28;20036;-55
2023/06/09 04:05:39;;;;;;;12.80;4.25;;;9.80;99.90;;;;;;5072572;28;20044;-55
2023/06/09 04:08:08;;;;;;;9.35;5.28;;;9.80;99.90;;;;;;5069905;28;20514;-57
2023/06/09 04:10:35;;;;;;;9.65;4.78;;;9.70;99.90;;;;;;5068904;28;20055;-56
2023/06/09 04:13:04;;;;;;;10.80;4.68;;;9.70;99.90;;;;;;5070490;28;20041;-57
2023/06/09 04:15:32;;;;;;;11.35;5.10;;;9.70;99.90;;;;;;5069811;28;20047;-57
2023/06/09 04:18:06;;;;;;;11.30;4.80;;;9.70;99.90;;;;;;5069354;28;20044;-56
2023/06/09 04:20:38;;;;;;;11.57;4.50;;;9.70;99.90;;;;;;5070103;28;20049;-55
2023/06/09 04:23:08;;;;;;;20.60;4.97;;;9.70;99.90;;;;;;5069230;28;20056;-56
2023/06/09 04:25:41;;;;;;;11.00;4.78;;;9.70;99.90;;;;;;5070075;28;20207;-57
2023/06/09 04:28:13;;;;;;;11.25;5.13;;;9.70;99.90;;;;;;5068653;28;20055;-57
2023/06/09 04:30:42;;;;;;;12.35;4.90;;;9.70;99.90;;;;;;5084369;28;20051;-57
2023/06/09 04:33:12;;;;;;;11.07;5.15;;;9.70;99.90;;;;;;5061960;28;20044;-57
2023/06/09 04:35:43;;;;;;;8.63;4.47;;;9.80;99.90;;;;;;5073838;28;20053;-55
2023/06/09 04:38:20;;;;;;;10.20;5.20;;;9.70;99.90;;;;;;5066680;28;20039;-56
2023/06/09 04:40:48;;;;;;;;;;;9.80;99.90;;;;;;5069781;28;20041;-56
2023/06/09 04:43:18;;;;;;;12.35;4.78;;;9.80;99.90;;;;;;5059191;28;19921;-56
2023/06/09 04:45:55;;;;;;;8.20;4.60;;;9.80;99.90;;;;;;5060644;28;20049;-56
2023/06/09 04:48:23;;;;;;;10.48;4.65;;;9.80;99.90;;;;;;5051953;28;20049;-58
2023/06/09 04:50:51;;;;;;;11.10;5.47;;;9.90;99.90;;;;;;5047749;28;20048;-56
2023/06/09 04:53:20;;;;;;;11.48;5.60;;;9.90;99.90;;;;;;5069889;28;20062;-57
2023/06/09 04:55:53;;;;;;;12.25;4.50;;;10.00;99.90;;;;;;5068218;28;20687;-56
2023/06/09 04:58:28;;;;;;;11.63;4.78;;;10.00;99.90;;;;;;5065466;28;20406;-55
2023/06/09 05:00:57;;;;;;;8.82;5.00;;;10.10;99.90;;;;;;5069657;28;20063;-57
2023/06/09 05:03:25;;;;;;;13.73;4.45;;;10.10;99.90;;;;;;5058576;28;20444;-57
2023/06/09 05:05:53;;;;;;;11.48;4.38;;;10.20;99.90;;;;;;5067501;28;20044;-56
2023/06/09 05:08:25;;;;;;;16.27;4.85;;;10.20;99.90;;;;;;5065379;28;20044;-56
2023/06/09 05:10:53;;;;;;;11.48;4.93;;;10.20;99.90;;;;;;5066757;28;20055;-57
2023/06/09 05:13:23;;;;;;;11.57;4.40;;;10.30;99.90;;;;;;5069096;28;20044;-56
2023/06/09 05:15:53;;;;;;;12.75;4.15;;;10.30;99.90;;;;;;5070497;28;20048;-55
2023/06/09 05:18:25;;;;;;;15.05;4.18;;;10.30;99.90;;;;;;5057230;28;20056;-55
2023/06/09 05:20:53;;;;;;;12.43;4.95;;;10.40;99.90;;;;;;5030068;28;20045;-57
2023/06/09 05:23:21;;;;;;;11.60;3.90;;;10.40;99.90;;;;;;5059217;28;20053;-56
2023/06/09 05:25:50;;;;;;;11.30;3.67;;;10.40;99.90;;;;;;5061776;28;20044;-56
2023/06/09 05:28:18;;;;;;;12.43;4.25;;;10.40;99.90;;;;;;5060133;28;20040;-57
2023/06/09 05:30:46;;;;;;;10.60;5.13;;;10.50;99.90;;;;;;5057540;28;20797;-57
2023/06/09 05:33:14;;;;;;;11.27;4.43;;;10.50;99.90;;;;;;5054097;28;20491;-56
2023/06/09 05:35:42;;;;;;;9.35;4.25;;;10.50;99.90;;;;;;5044715;28;20056;-56
2023/06/09 05:38:11;;;;;;;9.10;4.95;;;10.60;99.90;;;;;;5075818;28;20055;-56
2023/06/09 05:40:39;;;;;;;11.85;4.43;;;10.60;99.90;;;;;;5079243;28;20049;-56
2023/06/09 05:43:07;;;;;;;15.57;4.95;;;10.70;99.90;;;;;;5063738;28;20052;-57
2023/06/09 05:45:35;;;;;;;8.50;4.90;;;10.70;99.90;;;;;;5047401;28;20037;-56
2023/06/09 05:48:03;;;;;;;14.52;4.88;;;10.70;99.90;;;;;;5046824;28;20052;-55
2023/06/09 05:50:31;;;;;;;10.52;4.30;;;10.70;99.90;;;;;;5062091;28;20052;-58
2023/06/09 05:52:59;;;;;;;14.98;4.70;;;10.80;99.90;;;;;;5052266;28;20040;-57
2023/06/09 05:55:27;;;;;;;13.43;5.15;;;10.80;99.90;;;;;;5069652;28;20044;-57
2023/06/09 05:57:56;;;;;;;12.05;5.47;;;10.90;99.90;;;;;;5069643;28;20059;-57
2023/06/09 06:00:29;;;;;;;13.43;5.10;;;10.90;99.90;;;;;;5070112;28;20036;-56
2023/06/09 06:03:00;;;;;;;11.52;4.97;;;11.00;99.90;;;;;;5060902;28;20041;-57
2023/06/09 06:05:29;;;;;;;10.52;4.18;;;11.00;99.90;;;;;;5055316;28;20040;-60
2023/06/09 06:07:58;;;;;;;7.65;4.45;;;11.00;99.90;;;;;;5066262;28;20059;-57
2023/06/09 06:10:27;;;;;;;10.07;4.75;;;11.10;99.90;;;;;;5070373;28;20597;-56
2023/06/09 06:12:58;;;;;;;13.20;4.85;;;11.10;99.90;;;;;;5073913;28;20040;-56
2023/06/09 06:15:25;;;;;;;11.68;4.82;;;11.20;99.90;;;;;;5069457;28;20044;-57
2023/06/09 06:17:54;;;;;;;8.15;4.57;;;11.20;99.90;;;;;;5068005;28;20048;-57
2023/06/09 06:20:23;;;;;;;11.02;4.97;;;11.30;99.90;;;;;;5063028;28;20570;-57
2023/06/09 06:22:52;;;;;;;11.57;4.97;;;11.40;99.90;;;;;;5069335;28;20419;-57
2023/06/09 06:25:19;;;;;;;10.82;5.63;;;11.40;99.90;;;;;;5068992;28;20491;-57
2023/06/09 06:27:47;;;;;;;12.82;4.95;;;11.40;99.90;;;;;;5068922;28;20051;-56
2023/06/09 06:30:15;;;;;;;12.07;5.65;;;11.50;99.90;;;;;;5067650;28;20040;-55
2023/06/09 06:32:51;;;;;;;11.98;5.93;;;11.60;99.90;;;;;;5068174;28;20395;-57
2023/06/09 06:35:28;;;;;;;11.57;6.57;;;11.60;99.90;;;;;;5068112;28;20045;-55
2023/06/09 06:37:57;;;;;;;9.35;5.90;;;11.70;99.90;;;;;;5072892;28;20057;-57
2023/06/09 06:40:26;;;;;;;12.30;6.15;;;11.70;99.90;;;;;;5067703;28;20044;-56
2023/06/09 06:42:54;;;;;;;13.60;6.13;;;11.80;99.90;;;;;;5074842;28;20059;-57
2023/06/09 06:45:28;;;;;;;12.15;7.07;;;11.80;99.90;;;;;;5074125;28;20045;-56
2023/06/09 06:47:56;;;;;;;10.82;6.65;;;11.90;99.90;;;;;;5067294;28;20400;-57
2023/06/09 06:50:24;;;;;;;10.10;6.70;;;12.00;99.90;;;;;;5048815;28;20049;-57
2023/06/09 06:52:53;;;;;;;12.60;7.30;;;12.20;99.90;;;;;;5065946;28;20055;-56
2023/06/09 06:55:21;;;;;;;14.75;6.55;;;12.10;99.90;;;;;;5068642;28;20047;-56
2023/06/09 06:57:49;;;;;;;15.35;6.63;;;12.20;99.90;;;;;;5074649;28;20052;-56
2023/06/09 07:00:18;;;;;;;15.60;7.47;;;12.30;99.90;;;;;;5089043;28;20040;-57
2023/06/09 07:02:46;;;;;;;14.57;7.22;;;12.50;99.90;;;;;;5065031;28;20055;-56
2023/06/09 07:05:17;;;;;;;11.50;6.22;;;12.40;99.90;;;;;;5047298;28;20049;-57
2023/06/09 07:07:46;;;;;;;10.30;6.40;;;12.50;99.90;;;;;;5061339;28;20040;-56
2023/06/09 07:10:15;;;;;;;11.20;6.30;;;12.60;99.90;;;;;;5069080;28;20052;-56
2023/06/09 07:12:44;;;;;;;12.05;6.30;;;12.70;99.90;;;;;;5067675;28;20048;-56
2023/06/09 07:15:12;;;;;;;11.07;6.20;;;;;;;;;;5068450;28;20492;-56
2023/06/09 07:17:40;;;;;;;14.57;6.78;;;12.80;99.90;;;;;;5073681;28;20506;-56
2023/06/09 07:20:08;;;;;;;10.27;5.65;;;12.90;99.90;;;;;;5053667;28;20055;-56
2023/06/09 07:22:41;;;;;;;12.65;6.13;;;13.00;99.90;;;;;;5055641;28;20040;-57
2023/06/09 07:25:09;;;;;;;12.40;5.78;;;13.10;99.90;;;;;;5067255;28;20098;-55
2023/06/09 07:27:37;;;;;;;10.30;4.97;;;13.20;99.90;;;;;;5067197;28;20067;-56
2023/06/09 07:30:05;;;;;;;8.50;5.15;;;13.20;99.90;;;;;;5068239;28;20059;-57
2023/06/09 07:32:34;;;;;;;9.15;5.63;;;13.30;99.90;;;;;;5067930;28;20045;-56
2023/06/09 07:35:02;;;;;;;12.18;6.85;;;13.40;99.90;;;;;;5054193;28;20053;-56
2023/06/09 07:37:31;;;;;;;13.77;6.10;;;13.50;99.90;;;;;;5052857;28;20052;-58
2023/06/09 07:39:59;;;;;;;10.30;6.30;;;13.50;99.90;;;;;;5061095;28;20045;-57
2023/06/09 07:42:45;;;;;;;11.15;6.43;;;13.50;99.90;;;;;;5062972;28;20044;-56
2023/06/09 07:45:13;;;;;;;13.38;6.93;;;13.60;99.90;;;;;;5064346;28;20487;-59
2023/06/09 07:47:41;;;;;;;18.67;7.38;;;13.60;99.90;;;;;;5052069;28;20056;-56
2023/06/09 07:50:10;;;;;;;11.95;6.72;;;13.70;99.90;;;;;;5059933;28;20045;-56
2023/06/09 07:52:38;;;;;;;13.85;7.80;;;13.80;99.90;;;;;;5055926;28;20048;-57
2023/06/09 07:55:07;;;;;;;13.68;8.50;;;13.90;99.90;;;;;;5063711;28;20055;-58
2023/06/09 07:57:43;;;;;;;15.05;7.75;;;14.00;99.90;;;;;;5061082;28;20048;-57
2023/06/09 08:00:15;;;;;;;15.20;7.50;;;14.10;99.90;;;;;;5053348;28;20047;-56
2023/06/09 08:02:44;;;;;;;13.82;7.65;;;14.30;99.90;;;;;;5062739;28;20044;-56
2023/06/09 08:05:23;;;;;;;13.17;7.67;;;14.30;99.90;;;;;;5054041;28;20037;-56
2023/06/09 08:07:51;;;;;;;16.42;7.95;;;14.40;99.90;;;;;;5065792;28;20301;-56
2023/06/09 08:10:19;;;;;;;15.70;7.50;;;14.40;99.90;;;;;;5067721;28;20052;-56
2023/06/09 08:12:52;;;;;;;14.43;7.00;;;14.50;99.90;;;;;;5069538;28;20052;-56
2023/06/09 08:15:21;;;;;;;15.65;8.00;;;14.60;99.90;;;;;;5088008;28;20067;-56
2023/06/09 08:17:49;;;;;;;12.75;7.57;;;14.70;99.90;;;;;;5075949;28;20048;-57
2023/06/09 08:20:17;;;;;;;13.25;6.40;;;14.80;99.90;;;;;;5069617;28;20049;-57
2023/06/09 08:22:45;;;;;;;11.88;6.68;;;14.90;99.90;;;;;;5069165;28;20044;-57
2023/06/09 08:25:13;;;;;;;12.65;6.30;;;15.00;99.90;;;;;;5074158;28;20055;-57
2023/06/09 08:27:41;;;;;;;13.57;7.65;;;15.00;99.90;;;;;;5079093;28;20240;-58
2023/06/09 08:30:09;;;;;;;13.15;6.90;;;15.20;99.90;;;;;;5065702;28;20077;-57
2023/06/09 08:32:40;;;;;;;12.48;6.97;;;15.20;99.90;;;;;;5072071;28;20055;-58
2023/06/09 08:35:09;;;;;;;11.00;7.13;;;15.30;99.90;;;;;;5065578;28;20480;-57
2023/06/09 08:37:38;;;;;;;11.70;7.70;;;15.30;99.90;;;;;;5071889;28;20040;-57
2023/06/09 08:40:08;;;;;;;19.87;7.13;;;15.40;99.90;;;;;;5073111;28;20511;-56
2023/06/09 08:42:38;;;;;;;14.02;7.03;;;15.50;99.90;;;;;;5076340;28;20048;-57
2023/06/09 08:45:07;;;;;;;14.35;7.32;;;15.60;99.90;;;;;;5077823;28;20508;-57
2023/06/09 08:47:37;;;;;;;;;;;15.60;99.90;;;;;;5082833;28;20040;-56
2023/06/09 08:50:07;;;;;;;15.45;7.55;;;15.70;99.90;;;;;;5070944;28;20316;-56
2023/06/09 08:52:36;;;;;;;16.17;6.72;;;15.70;99.90;;;;;;5068044;28;20048;-57
2023/06/09 08:55:05;;;;;;;9.02;5.60;;;15.80;99.90;;;;;;5071024;28;20037;-56
2023/06/09 08:57:34;;;;;;;10.02;6.07;;;15.90;99.90;;;;;;5067217;28;20617;-58
2023/06/09 09:00:09;;;;;;;12.15;6.57;;;15.90;99.90;;;;;;5072616;28;20048;-57
2023/06/09 09:02:37;;;;;;;13.35;6.38;;;16.00;99.90;;;;;;5061151;28;20059;-57
2023/06/09 09:05:06;;;;;;;13.60;6.88;;;16.10;99.90;;;;;;5069240;28;20044;-58
2023/06/09 09:07:34;;;;;;;11.40;7.15;;;16.20;99.90;;;;;;5069977;28;20041;-57
2023/06/09 09:10:03;;;;;;;12.73;6.03;;;16.30;99.90;;;;;;5071103;28;20055;-57
2023/06/09 09:12:46;;;;;;;12.70;5.70;;;16.30;99.90;;;;;;5073192;28;20049;-58
2023/06/09 09:15:14;;;;;;;15.38;6.45;;;16.60;99.90;;;;;;5071569;28;20051;-58
2023/06/09 09:17:43;;;;;;;10.63;6.28;;;16.60;99.90;;;;;;5075126;28;20060;-59
2023/06/09 09:20:11;;;;;;;12.95;5.53;;;16.70;99.90;;;;;;5074201;28;20044;-57
2023/06/09 09:22:46;;;;;;;13.85;6.20;;;16.80;99.90;;;;;;5056493;28;20045;-58
2023/06/09 09:25:22;;;;;;;9.20;6.05;;;16.80;99.90;;;;;;5067209;28;20075;-57
2023/06/09 09:28:09;;;;;;;11.13;5.97;;;16.90;99.90;;;;;;5067868;28;20036;-57
2023/06/09 09:30:51;;;;;;;9.15;5.47;;;16.90;99.90;;;;;;5065470;28;20488;-57
2023/06/09 09:33:22;;;;;;;10.85;5.85;;;17.10;99.90;;;;;;5063558;28;20480;-57
2023/06/09 09:35:55;;;;;;;10.77;6.15;;;17.10;99.90;;;;;;5062538;28;20484;-57
2023/06/09 09:38:24;;;;;;;10.43;5.47;;;17.30;99.90;;;;;;5064408;28;20411;-57
2023/06/09 09:40:54;;;;;;;12.10;6.10;;;17.40;99.90;;;;;;5067337;28;20041;-57
2023/06/09 09:43:25;;;;;;;12.32;5.78;;;17.40;99.90;;;;;;5063401;28;20040;-56
2023/06/09 09:45:55;;;;;;;11.43;5.72;;;17.50;99.90;;;;;;5058530;28;20506;-57
2023/06/09 09:48:24;;;;;;;11.57;5.70;;;17.60;99.90;;;;;;5079772;28;20423;-57
2023/06/09 09:50:57;;;;;;;13.68;5.57;;;17.70;99.90;;;;;;5056869;28;20063;-56
2023/06/09 09:53:27;;;;;;;11.80;5.80;;;17.70;99.90;;;;;;5080172;28;20384;-57
2023/06/09 09:55:59;;;;;;;6.60;4.90;;;17.80;99.90;;;;;;5077307;28;20044;-57
2023/06/09 09:58:39;;;;;;;11.52;5.45;;;17.90;99.90;;;;;;5080919;28;20254;-57
2023/06/09 10:01:10;;;;;;;15.95;6.45;;;18.00;99.90;;;;;;5065731;28;20037;-57
2023/06/09 10:03:41;;;;;;;15.18;6.65;;;18.00;99.90;;;;;;5065314;28;20059;-58
2023/06/09 10:06:14;;;;;;;10.23;6.13;;;18.10;99.90;;;;;;5072053;28;20044;-58
2023/06/09 10:08:43;;;;;;;16.55;6.22;;;18.20;99.90;;;;;;5064168;28;20048;-58
2023/06/09 10:11:12;;;;;;;13.50;6.18;;;18.30;99.90;;;;;;5067422;28;20534;-57
2023/06/09 10:13:41;;;;;;;12.35;5.90;;;18.40;99.90;;;;;;5062958;28;20049;-59
2023/06/09 10:16:12;;;;;;;15.65;6.15;;;18.50;99.60;;;;;;5068598;28;20040;-58
2023/06/09 10:18:41;;;;;;;12.15;5.85;;;18.70;99.60;;;;;;5082404;28;20066;-56
2023/06/09 10:21:11;;;;;;;20.00;6.60;;;18.70;99.90;;;;;;5070546;28;20041;-58
2023/06/09 10:23:40;;;;;;;9.88;5.97;;;18.80;99.20;;;;;;5067784;28;20301;-57
2023/06/09 10:26:10;;;;;;;;;;;18.80;99.70;;;;;;5066321;28;20041;-57
2023/06/09 10:28:38;;;;;;;12.50;5.78;;;18.90;99.30;;;;;;5067392;28;19935;-57
2023/06/09 10:31:14;;;;;;;11.18;6.05;;;19.00;98.50;;;;;;5068869;28;20051;-57
2023/06/09 10:33:46;;;;;;;10.10;6.05;;;19.00;98.80;;;;;;5068348;28;20048;-58
2023/06/09 10:36:14;;;;;;;10.18;5.47;;;19.30;98.50;;;;;;5073108;28;20055;-56
2023/06/09 10:38:45;;;;;;;10.68;5.93;;;19.20;98.80;;;;;;5069803;28;20577;-57
2023/06/09 10:41:28;;;;;;;14.02;5.50;;;19.50;98.40;;;;;;5064275;28;20037;-58
2023/06/09 10:44:18;;;;;;;12.63;6.40;;;19.70;97.90;;;;;;5064234;28;20041;-58
2023/06/09 10:46:50;;;;;;;12.40;6.82;;;19.90;98.10;;;;;;5058536;28;20055;-58
2023/06/09 10:49:35;;;;;;;9.23;5.75;;;20.10;97.90;;;;;;5062222;28;20041;-57
2023/06/09 10:52:04;;;;;;;15.52;7.53;;;20.20;97.90;;;;;;5052591;28;20387;-62
2023/06/09 10:54:35;;;;;;;12.20;6.53;;;20.30;97.80;;;;;;5066101;28;20036;-56
2023/06/09 10:57:26;;;;;;;13.02;6.43;;;20.40;97.40;;;;;;5051402;28;20045;-57
2023/06/09 10:59:54;;;;;;;15.18;7.53;;;20.50;96.50;;;;;;5068697;28;20048;-57
2023/06/09 11:02:22;;;;;;;9.43;5.82;;;20.50;96.70;;;;;;5054998;28;20036;-57
2023/06/09 11:04:52;;;;;;;14.57;6.20;;;20.60;96.60;;;;;;5061259;28;20044;-57
2023/06/09 11:07:26;;;;;;;12.15;6.30;;;20.70;96.70;;;;;;5068091;28;20052;-57
2023/06/09 11:09:58;;;;;;;13.60;6.00;;;20.80;96.40;;;;;;5055034;28;20060;-58
2023/06/09 11:12:42;;;;;;;15.63;6.82;;;21.00;96.60;;;;;;5067326;28;20052;-57
2023/06/09 11:15:10;;;;;;;11.88;5.57;;;21.10;96.40;;;;;;5048141;28;20064;-58
2023/06/09 11:17:43;;;;;;;12.80;6.05;;;21.20;95.80;;;;;;5069804;28;20495;-57
2023/06/09 11:20:14;;;;;;;16.02;6.53;;;21.40;95.90;;;;;;5059463;28;20048;-57
2023/06/09 11:22:46;;;;;;;17.20;6.40;;;21.40;95.60;;;;;;5055181;28;20044;-57
2023/06/09 11:25:17;;;;;;;14.15;6.15;;;21.50;95.40;;;;;;5054470;28;20054;-59
2023/06/09 11:27:54;;;;;;;16.08;7.15;;;21.60;95.50;;;;;;5060904;28;20381;-58
2023/06/09 11:30:27;;;;;;;10.88;6.65;;;21.70;95.30;;;;;;5066965;28;20614;-58
2023/06/09 11:33:00;;;;;;;16.30;6.63;;;21.90;95.50;;;;;;5064047;28;20416;-60
2023/06/09 11:35:28;;;;;;;13.55;6.07;;;22.00;95.30;;;;;;5068362;28;20045;-59
2023/06/09 11:38:02;;;;;;;10.02;6.47;;;22.10;94.90;;;;;;5062433;28;20479;-59
2023/06/09 11:40:32;;;;;;;12.20;7.22;;;22.20;94.40;;;;;;5073917;28;20264;-61
2023/06/09 11:43:01;;;;;;;11.55;6.32;;;22.30;94.40;;;;;;5049285;28;20037;-58
2023/06/09 11:45:30;;;;;;;11.95;6.15;;;22.50;94.30;;;;;;5054250;28;20404;-60
2023/06/09 11:48:00;;;;;;;13.43;7.53;;;22.60;94.00;;;;;;5071826;28;20048;-59
2023/06/09 11:50:44;;;;;;;11.95;6.45;;;22.80;93.90;;;;;;5069513;28;20048;-59
2023/06/09 11:53:17;;;;;;;15.80;6.65;;;23.00;93.50;;;;;;5067280;28;20055;-59
2023/06/09 11:55:46;;;;;;;11.48;6.13;;;23.20;93.20;;;;;;5067850;28;20041;-59
2023/06/09 11:58:16;;;;;;;14.15;7.63;;;23.30;92.60;;;;;;5063397;28;20059;-59
2023/06/09 12:00:45;;;;;;;;;;;23.40;92.40;;;;;;5065580;28;20060;-59
2023/06/09 12:03:18;;;;;;;15.10;7.10;;;23.60;92.10;;;;;;5076270;28;19924;-59
2023/06/09 12:05:51;;;;;;;11.10;6.18;;;23.80;92.50;;;;;;5083486;28;20048;-59
2023/06/09 12:08:19;;;;;;;13.30;7.13;;;24.00;91.70;;;;;;5068327;28;20480;-59
2023/06/09 12:10:47;;;;;;;9.65;6.95;;;24.30;91.30;;;;;;5065794;28;20530;-60
2023/06/09 12:13:16;;;;;;;14.75;6.60;;;24.30;91.50;;;;;;5077574;28;20052;-57
2023/06/09 12:15:52;;;;;;;17.60;6.75;;;24.60;90.40;;;;;;5078812;28;20059;-59
2023/06/09 12:18:21;;;;;;;12.55;6.20;;;24.70;90.60;;;;;;5076361;28;20403;-58
2023/06/09 12:20:51;;;;;;;9.73;6.03;;;25.10;90.10;;;;;;5078362;28;20040;-58
2023/06/09 12:23:27;;;;;;;10.85;6.18;;;25.10;90.10;;;;;;5068473;28;20044;-57
2023/06/09 12:25:55;;;;;;;12.45;6.57;;;25.30;89.20;;;;;;5066982;28;20045;-59
2023/06/09 12:28:26;;;;;;;12.48;5.68;;;25.60;87.40;;;;;;5070970;28;20036;-58
2023/06/09 12:30:56;;;;;;;11.45;6.07;;;25.60;88.10;;;;;;5066351;28;20056;-57
2023/06/09 12:33:25;;;;;;;11.23;5.85;;;25.80;87.30;;;;;;5067334;28;20043;-57
2023/06/09 12:36:11;;;;;;;8.93;6.22;;;26.00;85.80;;;;;;5071741;28;20040;-59
2023/06/09 12:38:41;;;;;;;10.15;5.50;;;26.00;85.60;;;;;;5057158;28;20044;-58
2023/06/09 12:41:11;;;;;;;11.43;5.75;;;26.10;84.30;;;;;;5066574;28;20045;-59
2023/06/09 12:43:55;;;;;;;12.50;5.55;;;26.20;84.30;;;;;;5064726;28;20040;-58
2023/06/09 12:46:42;;;;;;;7.85;5.15;;;26.30;83.80;;;;;;5062634;28;20075;-59
2023/06/09 12:49:10;;;;;;;9.48;6.18;;;26.40;82.40;;;;;;5060188;28;20056;-58
2023/06/09 12:51:40;;;;;;;15.27;6.38;;;26.50;83.00;;;;;;5048875;28;20059;-59
2023/06/09 12:54:13;;;;;;;12.52;5.63;;;26.60;81.90;;;;;;5065619;28;20041;-59
2023/06/09 12:56:41;;;;;;;15.20;5.32;;;26.60;81.10;;;;;;5056882;28;20045;-58
2023/06/09 12:59:09;;;;;;;14.55;6.05;;;26.70;82.10;;;;;;5068230;28;20049;-57
2023/06/09 13:01:40;;;;;;;14.43;6.18;;;26.80;81.80;;;;;;5054507;28;20369;-59